Terminal Aerodrome Forecast
Issued by NWS

Home | Current Version | Previous Version | Text Only | Print | Product List | Glossary On
Versions: 1 2 3 4 5 6 7 8 9 10 11 12 13 14 15 16 17
000
FTUS43 KPAH 261636 AAB
TAFOWB
TAF AMD
KOWB 261636Z 2617/2712 32015G30KT 6SM TSRA BKN050CB
      TEMPO 2617/2618 2SM +TSRA OVC020CB
     FM261830 14008KT P6SM BKN035
     FM270100 17005KT P6SM BKN035=

USA.gov is the U.S. government's official web portal to all federal, state and local government web resources and services.